sensor_id;sensor_type;location;lat;lon;timestamp;P1;durP1;ratioP1;P2;durP2;ratioP2
64297;SDS011;50639;53.270;7.956;2024-03-02T00:02:24;12.63;;;8.75;;
64297;SDS011;50639;53.270;7.956;2024-03-02T00:04:50;12.98;;;9.07;;
64297;SDS011;50639;53.270;7.956;2024-03-02T00:07:16;12.65;;;9.00;;
64297;SDS011;50639;53.270;7.956;2024-03-02T00:09:42;14.43;;;9.27;;
64297;SDS011;50639;53.270;7.956;2024-03-02T00:12:10;12.00;;;9.00;;
64297;SDS011;50639;53.270;7.956;2024-03-02T00:14:40;12.43;;;8.13;;
64297;SDS011;50639;53.270;7.956;2024-03-02T00:17:08;13.98;;;9.00;;
64297;SDS011;50639;53.270;7.956;2024-03-02T00:19:47;12.57;;;8.77;;
64297;SDS011;50639;53.270;7.956;2024-03-02T00:22:12;15.82;;;9.00;;
64297;SDS011;50639;53.270;7.956;2024-03-02T00:24:38;15.27;;;9.32;;
64297;SDS011;50639;53.270;7.956;2024-03-02T00:27:04;13.82;;;8.55;;
64297;SDS011;50639;53.270;7.956;2024-03-02T00:29:32;11.95;;;8.00;;
64297;SDS011;50639;53.270;7.956;2024-03-02T00:31:59;10.68;;;7.53;;
64297;SDS011;50639;53.270;7.956;2024-03-02T00:34:26;11.85;;;8.27;;
64297;SDS011;50639;53.270;7.956;2024-03-02T00:36:51;12.40;;;8.95;;
64297;SDS011;50639;53.270;7.956;2024-03-02T00:39:17;16.80;;;10.20;;
64297;SDS011;50639;53.270;7.956;2024-03-02T00:41:42;12.10;;;8.75;;
64297;SDS011;50639;53.270;7.956;2024-03-02T00:44:12;16.05;;;9.38;;
64297;SDS011;50639;53.270;7.956;2024-03-02T00:46:38;13.23;;;8.75;;
64297;SDS011;50639;53.270;7.956;2024-03-02T00:49:18;11.23;;;8.02;;
64297;SDS011;50639;53.270;7.956;2024-03-02T00:51:51;11.68;;;7.82;;
64297;SDS011;50639;53.270;7.956;2024-03-02T00:54:26;18.50;;;10.52;;
64297;SDS011;50639;53.270;7.956;2024-03-02T00:56:54;16.65;;;9.68;;
64297;SDS011;50639;53.270;7.956;2024-03-02T00:59:21;16.40;;;9.97;;
64297;SDS011;50639;53.270;7.956;2024-03-02T01:01:47;19.35;;;10.75;;
64297;SDS011;50639;53.270;7.956;2024-03-02T01:04:14;17.60;;;10.27;;
64297;SDS011;50639;53.270;7.956;2024-03-02T01:06:39;19.35;;;11.70;;
64297;SDS011;50639;53.270;7.956;2024-03-02T01:09:05;24.08;;;12.98;;
64297;SDS011;50639;53.270;7.956;2024-03-02T01:11:31;34.72;;;18.30;;
64297;SDS011;50639;53.270;7.956;2024-03-02T01:13:56;23.25;;;17.70;;
64297;SDS011;50639;53.270;7.956;2024-03-02T01:16:22;14.07;;;10.30;;
64297;SDS011;50639;53.270;7.956;2024-03-02T01:18:48;14.15;;;8.80;;
64297;SDS011;50639;53.270;7.956;2024-03-02T01:21:14;12.70;;;8.75;;
64297;SDS011;50639;53.270;7.956;2024-03-02T01:23:40;16.33;;;10.07;;
64297;SDS011;50639;53.270;7.956;2024-03-02T01:26:06;21.33;;;9.70;;
64297;SDS011;50639;53.270;7.956;2024-03-02T01:28:32;21.55;;;14.23;;
64297;SDS011;50639;53.270;7.956;2024-03-02T01:30:57;15.23;;;10.70;;
64297;SDS011;50639;53.270;7.956;2024-03-02T01:33:23;14.05;;;9.13;;
64297;SDS011;50639;53.270;7.956;2024-03-02T01:35:48;14.13;;;9.52;;
64297;SDS011;50639;53.270;7.956;2024-03-02T01:38:14;13.05;;;8.50;;
64297;SDS011;50639;53.270;7.956;2024-03-02T01:40:39;12.98;;;9.18;;
64297;SDS011;50639;53.270;7.956;2024-03-02T01:43:05;13.02;;;8.27;;
64297;SDS011;50639;53.270;7.956;2024-03-02T01:45:31;13.65;;;7.43;;
64297;SDS011;50639;53.270;7.956;2024-03-02T01:47:57;13.52;;;7.82;;
64297;SDS011;50639;53.270;7.956;2024-03-02T01:50:29;10.65;;;7.47;;
64297;SDS011;50639;53.270;7.956;2024-03-02T01:52:56;10.00;;;6.50;;
64297;SDS011;50639;53.270;7.956;2024-03-02T01:55:22;11.68;;;7.20;;
64297;SDS011;50639;53.270;7.956;2024-03-02T01:57:48;11.10;;;7.15;;
64297;SDS011;50639;53.270;7.956;2024-03-02T02:00:16;10.18;;;6.82;;
64297;SDS011;50639;53.270;7.956;2024-03-02T02:02:41;12.25;;;7.13;;
64297;SDS011;50639;53.270;7.956;2024-03-02T02:05:07;9.73;;;6.32;;
64297;SDS011;50639;53.270;7.956;2024-03-02T02:07:33;10.45;;;6.55;;
64297;SDS011;50639;53.270;7.956;2024-03-02T02:10:00;10.02;;;6.53;;
64297;SDS011;50639;53.270;7.956;2024-03-02T02:12:26;12.63;;;7.20;;
64297;SDS011;50639;53.270;7.956;2024-03-02T02:14:52;8.75;;;5.97;;
64297;SDS011;50639;53.270;7.956;2024-03-02T02:17:17;11.70;;;6.95;;
64297;SDS011;50639;53.270;7.956;2024-03-02T02:19:43;10.32;;;6.55;;
64297;SDS011;50639;53.270;7.956;2024-03-02T02:22:09;8.88;;;5.72;;
64297;SDS011;50639;53.270;7.956;2024-03-02T02:24:35;10.23;;;6.27;;
64297;SDS011;50639;53.270;7.956;2024-03-02T02:27:00;10.75;;;7.03;;
64297;SDS011;50639;53.270;7.956;2024-03-02T02:29:26;9.90;;;7.10;;
64297;SDS011;50639;53.270;7.956;2024-03-02T02:31:52;9.32;;;6.40;;
64297;SDS011;50639;53.270;7.956;2024-03-02T02:34:17;10.13;;;6.70;;
64297;SDS011;50639;53.270;7.956;2024-03-02T02:36:43;10.80;;;7.00;;
64297;SDS011;50639;53.270;7.956;2024-03-02T02:39:10;11.63;;;7.10;;
64297;SDS011;50639;53.270;7.956;2024-03-02T02:41:38;10.20;;;6.75;;
64297;SDS011;50639;53.270;7.956;2024-03-02T02:44:04;10.55;;;7.28;;
64297;SDS011;50639;53.270;7.956;2024-03-02T02:46:29;10.88;;;6.82;;
64297;SDS011;50639;53.270;7.956;2024-03-02T02:48:55;10.73;;;6.65;;
64297;SDS011;50639;53.270;7.956;2024-03-02T02:51:20;10.02;;;6.97;;
64297;SDS011;50639;53.270;7.956;2024-03-02T02:53:46;10.27;;;6.93;;
64297;SDS011;50639;53.270;7.956;2024-03-02T02:56:11;12.80;;;7.47;;
64297;SDS011;50639;53.270;7.956;2024-03-02T02:58:37;9.73;;;7.10;;
64297;SDS011;50639;53.270;7.956;2024-03-02T03:01:02;10.13;;;7.45;;
64297;SDS011;50639;53.270;7.956;2024-03-02T03:03:29;10.55;;;7.07;;
64297;SDS011;50639;53.270;7.956;2024-03-02T03:05:54;10.32;;;7.05;;
64297;SDS011;50639;53.270;7.956;2024-03-02T03:08:20;10.65;;;7.25;;
64297;SDS011;50639;53.270;7.956;2024-03-02T03:10:45;10.65;;;7.32;;
64297;SDS011;50639;53.270;7.956;2024-03-02T03:13:11;9.40;;;6.32;;
64297;SDS011;50639;53.270;7.956;2024-03-02T03:15:36;10.98;;;6.85;;
64297;SDS011;50639;53.270;7.956;2024-03-02T03:18:05;11.10;;;7.05;;
64297;SDS011;50639;53.270;7.956;2024-03-02T03:20:32;11.00;;;7.30;;
64297;SDS011;50639;53.270;7.956;2024-03-02T03:22:58;10.93;;;7.45;;
64297;SDS011;50639;53.270;7.956;2024-03-02T03:25:24;10.20;;;7.30;;
64297;SDS011;50639;53.270;7.956;2024-03-02T03:27:49;13.13;;;8.57;;
64297;SDS011;50639;53.270;7.956;2024-03-02T03:30:17;11.07;;;7.82;;
64297;SDS011;50639;53.270;7.956;2024-03-02T03:32:43;10.55;;;7.18;;
64297;SDS011;50639;53.270;7.956;2024-03-02T03:35:08;10.35;;;7.88;;
64297;SDS011;50639;53.270;7.956;2024-03-02T03:37:34;9.73;;;6.78;;
64297;SDS011;50639;53.270;7.956;2024-03-02T03:40:00;10.02;;;7.40;;
64297;SDS011;50639;53.270;7.956;2024-03-02T03:42:26;10.43;;;7.63;;
64297;SDS011;50639;53.270;7.956;2024-03-02T03:44:52;10.85;;;7.70;;
64297;SDS011;50639;53.270;7.956;2024-03-02T03:47:17;11.25;;;7.07;;
64297;SDS011;50639;53.270;7.956;2024-03-02T03:49:42;10.25;;;7.30;;
64297;SDS011;50639;53.270;7.956;2024-03-02T03:52:08;11.10;;;7.85;;
64297;SDS011;50639;53.270;7.956;2024-03-02T03:54:33;10.60;;;7.32;;
64297;SDS011;50639;53.270;7.956;2024-03-02T03:56:59;11.90;;;7.88;;
64297;SDS011;50639;53.270;7.956;2024-03-02T03:59:24;9.90;;;7.25;;
64297;SDS011;50639;53.270;7.956;2024-03-02T04:01:49;10.23;;;7.47;;
64297;SDS011;50639;53.270;7.956;2024-03-02T04:04:15;11.48;;;8.63;;
64297;SDS011;50639;53.270;7.956;2024-03-02T04:06:41;14.00;;;7.57;;
64297;SDS011;50639;53.270;7.956;2024-03-02T04:09:06;12.20;;;8.13;;
64297;SDS011;50639;53.270;7.956;2024-03-02T04:11:32;10.73;;;7.50;;
64297;SDS011;50639;53.270;7.956;2024-03-02T04:13:58;11.82;;;8.40;;
64297;SDS011;50639;53.270;7.956;2024-03-02T04:16:23;10.88;;;8.07;;
64297;SDS011;50639;53.270;7.956;2024-03-02T04:18:48;11.15;;;7.45;;
64297;SDS011;50639;53.270;7.956;2024-03-02T04:21:14;11.77;;;7.65;;
64297;SDS011;50639;53.270;7.956;2024-03-02T04:23:39;9.93;;;7.25;;
64297;SDS011;50639;53.270;7.956;2024-03-02T04:26:05;12.20;;;8.32;;
64297;SDS011;50639;53.270;7.956;2024-03-02T04:28:30;11.82;;;7.80;;
64297;SDS011;50639;53.270;7.956;2024-03-02T04:30:56;10.13;;;7.57;;
64297;SDS011;50639;53.270;7.956;2024-03-02T04:33:21;11.43;;;8.00;;
64297;SDS011;50639;53.270;7.956;2024-03-02T04:35:46;11.07;;;8.02;;
64297;SDS011;50639;53.270;7.956;2024-03-02T04:38:12;11.00;;;7.47;;
64297;SDS011;50639;53.270;7.956;2024-03-02T04:40:37;11.23;;;8.25;;
64297;SDS011;50639;53.270;7.956;2024-03-02T04:43:03;10.73;;;7.30;;
64297;SDS011;50639;53.270;7.956;2024-03-02T04:45:28;10.20;;;7.40;;
64297;SDS011;50639;53.270;7.956;2024-03-02T04:47:54;11.30;;;7.72;;
64297;SDS011;50639;53.270;7.956;2024-03-02T04:50:20;11.77;;;7.88;;
64297;SDS011;50639;53.270;7.956;2024-03-02T04:52:45;11.90;;;8.00;;
64297;SDS011;50639;53.270;7.956;2024-03-02T04:55:10;11.85;;;7.95;;
64297;SDS011;50639;53.270;7.956;2024-03-02T04:57:36;10.95;;;7.88;;
64297;SDS011;50639;53.270;7.956;2024-03-02T05:00:01;12.40;;;8.20;;
64297;SDS011;50639;53.270;7.956;2024-03-02T05:02:27;10.85;;;8.13;;
64297;SDS011;50639;53.270;7.956;2024-03-02T05:04:52;9.10;;;7.00;;
64297;SDS011;50639;53.270;7.956;2024-03-02T05:07:17;11.73;;;8.52;;
64297;SDS011;50639;53.270;7.956;2024-03-02T05:09:43;12.32;;;8.27;;
64297;SDS011;50639;53.270;7.956;2024-03-02T05:12:08;12.23;;;8.57;;
64297;SDS011;50639;53.270;7.956;2024-03-02T05:14:38;11.35;;;7.95;;
64297;SDS011;50639;53.270;7.956;2024-03-02T05:17:04;10.55;;;8.07;;
64297;SDS011;50639;53.270;7.956;2024-03-02T05:19:29;11.85;;;8.05;;
64297;SDS011;50639;53.270;7.956;2024-03-02T05:21:55;14.10;;;9.38;;
64297;SDS011;50639;53.270;7.956;2024-03-02T05:24:20;12.90;;;9.25;;
64297;SDS011;50639;53.270;7.956;2024-03-02T05:26:46;13.32;;;10.02;;
64297;SDS011;50639;53.270;7.956;2024-03-02T05:29:11;11.88;;;9.13;;
64297;SDS011;50639;53.270;7.956;2024-03-02T05:31:37;11.25;;;8.45;;
64297;SDS011;50639;53.270;7.956;2024-03-02T05:34:02;11.93;;;8.88;;
64297;SDS011;50639;53.270;7.956;2024-03-02T05:36:28;12.90;;;8.13;;
64297;SDS011;50639;53.270;7.956;2024-03-02T05:38:54;11.13;;;8.45;;
64297;SDS011;50639;53.270;7.956;2024-03-02T05:41:20;11.57;;;8.93;;
64297;SDS011;50639;53.270;7.956;2024-03-02T05:43:45;11.88;;;8.57;;
64297;SDS011;50639;53.270;7.956;2024-03-02T05:46:11;13.15;;;8.95;;
64297;SDS011;50639;53.270;7.956;2024-03-02T05:48:37;11.77;;;8.75;;
64297;SDS011;50639;53.270;7.956;2024-03-02T05:51:02;13.52;;;8.63;;
64297;SDS011;50639;53.270;7.956;2024-03-02T05:53:28;10.93;;;8.65;;
64297;SDS011;50639;53.270;7.956;2024-03-02T05:55:53;11.82;;;9.27;;
64297;SDS011;50639;53.270;7.956;2024-03-02T05:58:21;12.57;;;8.63;;
64297;SDS011;50639;53.270;7.956;2024-03-02T06:01:05;12.55;;;8.27;;
64297;SDS011;50639;53.270;7.956;2024-03-02T06:03:31;12.48;;;9.20;;
64297;SDS011;50639;53.270;7.956;2024-03-02T06:05:57;13.23;;;9.48;;
64297;SDS011;50639;53.270;7.956;2024-03-02T06:08:22;10.73;;;8.35;;
64297;SDS011;50639;53.270;7.956;2024-03-02T06:10:48;12.00;;;8.88;;
64297;SDS011;50639;53.270;7.956;2024-03-02T06:13:13;12.00;;;9.43;;
64297;SDS011;50639;53.270;7.956;2024-03-02T06:15:39;11.93;;;8.20;;
64297;SDS011;50639;53.270;7.956;2024-03-02T06:18:04;11.93;;;8.40;;
64297;SDS011;50639;53.270;7.956;2024-03-02T06:20:31;11.68;;;8.75;;
64297;SDS011;50639;53.270;7.956;2024-03-02T06:22:57;13.52;;;9.27;;
64297;SDS011;50639;53.270;7.956;2024-03-02T06:25:22;12.70;;;8.57;;
64297;SDS011;50639;53.270;7.956;2024-03-02T06:27:47;13.20;;;9.60;;
64297;SDS011;50639;53.270;7.956;2024-03-02T06:30:13;13.05;;;8.90;;
64297;SDS011;50639;53.270;7.956;2024-03-02T06:32:38;18.20;;;12.93;;
64297;SDS011;50639;53.270;7.956;2024-03-02T06:35:04;19.52;;;15.02;;
64297;SDS011;50639;53.270;7.956;2024-03-02T06:37:32;12.45;;;9.57;;
64297;SDS011;50639;53.270;7.956;2024-03-02T06:39:57;12.90;;;8.82;;
64297;SDS011;50639;53.270;7.956;2024-03-02T06:42:23;11.18;;;8.52;;
64297;SDS011;50639;53.270;7.956;2024-03-02T06:44:49;11.18;;;8.68;;
64297;SDS011;50639;53.270;7.956;2024-03-02T06:47:15;13.02;;;9.32;;
64297;SDS011;50639;53.270;7.956;2024-03-02T06:49:42;12.50;;;8.88;;
64297;SDS011;50639;53.270;7.956;2024-03-02T06:52:07;15.48;;;9.30;;
64297;SDS011;50639;53.270;7.956;2024-03-02T06:54:33;12.05;;;9.05;;
64297;SDS011;50639;53.270;7.956;2024-03-02T06:56:59;12.60;;;9.07;;
64297;SDS011;50639;53.270;7.956;2024-03-02T06:59:25;12.57;;;9.35;;
64297;SDS011;50639;53.270;7.956;2024-03-02T07:01:50;12.63;;;8.15;;
64297;SDS011;50639;53.270;7.956;2024-03-02T07:04:16;11.00;;;7.85;;
64297;SDS011;50639;53.270;7.956;2024-03-02T07:06:41;12.40;;;9.68;;
64297;SDS011;50639;53.270;7.956;2024-03-02T07:09:07;12.75;;;8.43;;
64297;SDS011;50639;53.270;7.956;2024-03-02T07:11:36;12.20;;;9.15;;
64297;SDS011;50639;53.270;7.956;2024-03-02T07:14:01;10.75;;;8.10;;
64297;SDS011;50639;53.270;7.956;2024-03-02T07:16:27;12.70;;;8.98;;
64297;SDS011;50639;53.270;7.956;2024-03-02T07:18:58;12.80;;;9.25;;
64297;SDS011;50639;53.270;7.956;2024-03-02T07:21:24;19.75;;;13.75;;
64297;SDS011;50639;53.270;7.956;2024-03-02T07:23:50;16.02;;;11.57;;
64297;SDS011;50639;53.270;7.956;2024-03-02T07:26:15;14.38;;;9.35;;
64297;SDS011;50639;53.270;7.956;2024-03-02T07:31:09;13.02;;;9.20;;
64297;SDS011;50639;53.270;7.956;2024-03-02T07:33:35;17.40;;;9.27;;
64297;SDS011;50639;53.270;7.956;2024-03-02T07:36:00;15.73;;;8.38;;
64297;SDS011;50639;53.270;7.956;2024-03-02T07:38:27;11.95;;;8.60;;
64297;SDS011;50639;53.270;7.956;2024-03-02T07:40:53;12.68;;;9.10;;
64297;SDS011;50639;53.270;7.956;2024-03-02T07:43:19;12.00;;;8.75;;
64297;SDS011;50639;53.270;7.956;2024-03-02T07:45:47;10.90;;;8.48;;
64297;SDS011;50639;53.270;7.956;2024-03-02T07:48:13;11.93;;;8.50;;
64297;SDS011;50639;53.270;7.956;2024-03-02T07:50:40;11.40;;;8.77;;
64297;SDS011;50639;53.270;7.956;2024-03-02T07:53:05;11.35;;;8.65;;
64297;SDS011;50639;53.270;7.956;2024-03-02T07:55:32;12.65;;;8.52;;
64297;SDS011;50639;53.270;7.956;2024-03-02T07:57:58;11.95;;;9.05;;
64297;SDS011;50639;53.270;7.956;2024-03-02T08:00:24;12.50;;;8.85;;
64297;SDS011;50639;53.270;7.956;2024-03-02T08:02:50;14.37;;;9.60;;
64297;SDS011;50639;53.270;7.956;2024-03-02T08:05:17;12.18;;;8.90;;
64297;SDS011;50639;53.270;7.956;2024-03-02T08:07:46;12.48;;;8.82;;
64297;SDS011;50639;53.270;7.956;2024-03-02T08:10:12;12.45;;;9.10;;
64297;SDS011;50639;53.270;7.956;2024-03-02T08:12:38;11.13;;;8.68;;
64297;SDS011;50639;53.270;7.956;2024-03-02T08:15:04;10.93;;;7.65;;
64297;SDS011;50639;53.270;7.956;2024-03-02T08:17:30;11.25;;;8.85;;
64297;SDS011;50639;53.270;7.956;2024-03-02T08:19:55;13.13;;;9.20;;
64297;SDS011;50639;53.270;7.956;2024-03-02T08:22:21;11.57;;;9.13;;
64297;SDS011;50639;53.270;7.956;2024-03-02T08:24:47;11.68;;;9.05;;
64297;SDS011;50639;53.270;7.956;2024-03-02T08:27:13;13.88;;;9.32;;
64297;SDS011;50639;53.270;7.956;2024-03-02T08:29:39;17.50;;;12.65;;
64297;SDS011;50639;53.270;7.956;2024-03-02T08:32:06;13.23;;;10.18;;
64297;SDS011;50639;53.270;7.956;2024-03-02T08:34:32;30.92;;;20.98;;
64297;SDS011;50639;53.270;7.956;2024-03-02T08:36:59;15.63;;;11.17;;
64297;SDS011;50639;53.270;7.956;2024-03-02T08:39:24;26.23;;;18.58;;
64297;SDS011;50639;53.270;7.956;2024-03-02T08:41:50;23.83;;;16.05;;
64297;SDS011;50639;53.270;7.956;2024-03-02T08:44:16;21.55;;;15.35;;
64297;SDS011;50639;53.270;7.956;2024-03-02T08:46:41;12.38;;;9.45;;
64297;SDS011;50639;53.270;7.956;2024-03-02T08:49:07;14.60;;;10.50;;
64297;SDS011;50639;53.270;7.956;2024-03-02T08:51:33;15.20;;;11.30;;
64297;SDS011;50639;53.270;7.956;2024-03-02T08:53:58;14.25;;;10.07;;
64297;SDS011;50639;53.270;7.956;2024-03-02T08:56:24;14.07;;;9.23;;
64297;SDS011;50639;53.270;7.956;2024-03-02T08:58:50;13.50;;;9.95;;
64297;SDS011;50639;53.270;7.956;2024-03-02T09:01:17;12.43;;;8.77;;
64297;SDS011;50639;53.270;7.956;2024-03-02T09:03:43;12.30;;;9.00;;
64297;SDS011;50639;53.270;7.956;2024-03-02T09:06:10;12.37;;;9.20;;
64297;SDS011;50639;53.270;7.956;2024-03-02T09:08:36;11.15;;;7.57;;
64297;SDS011;50639;53.270;7.956;2024-03-02T09:11:02;12.70;;;8.63;;
64297;SDS011;50639;53.270;7.956;2024-03-02T09:13:29;13.13;;;9.38;;
64297;SDS011;50639;53.270;7.956;2024-03-02T09:15:54;13.35;;;9.38;;
64297;SDS011;50639;53.270;7.956;2024-03-02T09:18:20;14.20;;;9.55;;
64297;SDS011;50639;53.270;7.956;2024-03-02T09:20:45;12.93;;;8.52;;
64297;SDS011;50639;53.270;7.956;2024-03-02T09:23:11;13.30;;;9.00;;
64297;SDS011;50639;53.270;7.956;2024-03-02T09:25:36;11.70;;;7.47;;
64297;SDS011;50639;53.270;7.956;2024-03-02T09:28:02;9.93;;;7.35;;
64297;SDS011;50639;53.270;7.956;2024-03-02T09:30:28;11.07;;;7.68;;
64297;SDS011;50639;53.270;7.956;2024-03-02T09:32:53;13.52;;;7.80;;
64297;SDS011;50639;53.270;7.956;2024-03-02T09:35:19;11.70;;;8.18;;
64297;SDS011;50639;53.270;7.956;2024-03-02T09:37:45;11.27;;;6.90;;
64297;SDS011;50639;53.270;7.956;2024-03-02T09:40:10;12.52;;;7.97;;
64297;SDS011;50639;53.270;7.956;2024-03-02T09:42:36;11.45;;;7.45;;
64297;SDS011;50639;53.270;7.956;2024-03-02T09:45:02;12.93;;;7.28;;
64297;SDS011;50639;53.270;7.956;2024-03-02T09:47:28;10.85;;;7.05;;
64297;SDS011;50639;53.270;7.956;2024-03-02T09:49:54;10.25;;;6.20;;
64297;SDS011;50639;53.270;7.956;2024-03-02T09:52:22;10.40;;;6.25;;
64297;SDS011;50639;53.270;7.956;2024-03-02T09:54:47;8.23;;;5.75;;
64297;SDS011;50639;53.270;7.956;2024-03-02T09:57:14;10.00;;;6.10;;
64297;SDS011;50639;53.270;7.956;2024-03-02T09:59:39;11.77;;;6.72;;
64297;SDS011;50639;53.270;7.956;2024-03-02T10:02:05;8.73;;;5.97;;
64297;SDS011;50639;53.270;7.956;2024-03-02T10:04:32;10.45;;;6.20;;
64297;SDS011;50639;53.270;7.956;2024-03-02T10:07:15;10.25;;;5.90;;
64297;SDS011;50639;53.270;7.956;2024-03-02T10:09:41;11.65;;;6.50;;
64297;SDS011;50639;53.270;7.956;2024-03-02T10:12:09;9.23;;;5.85;;
64297;SDS011;50639;53.270;7.956;2024-03-02T10:14:36;11.55;;;6.38;;
64297;SDS011;50639;53.270;7.956;2024-03-02T10:17:03;10.32;;;5.63;;
64297;SDS011;50639;53.270;7.956;2024-03-02T10:19:30;8.77;;;5.85;;
64297;SDS011;50639;53.270;7.956;2024-03-02T10:22:00;10.18;;;6.30;;
64297;SDS011;50639;53.270;7.956;2024-03-02T10:24:28;10.60;;;5.72;;
64297;SDS011;50639;53.270;7.956;2024-03-02T10:26:59;8.68;;;5.28;;
64297;SDS011;50639;53.270;7.956;2024-03-02T10:29:25;7.43;;;4.95;;
64297;SDS011;50639;53.270;7.956;2024-03-02T10:31:53;7.65;;;4.97;;
64297;SDS011;50639;53.270;7.956;2024-03-02T10:34:19;7.20;;;5.03;;
64297;SDS011;50639;53.270;7.956;2024-03-02T10:39:12;9.73;;;5.35;;
64297;SDS011;50639;53.270;7.956;2024-03-02T10:41:39;8.15;;;4.68;;
64297;SDS011;50639;53.270;7.956;2024-03-02T10:44:06;5.82;;;4.00;;
64297;SDS011;50639;53.270;7.956;2024-03-02T10:49:00;9.25;;;4.25;;
64297;SDS011;50639;53.270;7.956;2024-03-02T10:51:28;6.72;;;4.10;;
64297;SDS011;50639;53.270;7.956;2024-03-02T10:53:57;8.93;;;5.43;;
64297;SDS011;50639;53.270;7.956;2024-03-02T10:56:58;8.93;;;4.77;;
64297;SDS011;50639;53.270;7.956;2024-03-02T11:01:55;7.85;;;4.95;;
64297;SDS011;50639;53.270;7.956;2024-03-02T11:04:25;7.30;;;4.75;;
64297;SDS011;50639;53.270;7.956;2024-03-02T11:06:54;7.72;;;4.72;;
64297;SDS011;50639;53.270;7.956;2024-03-02T11:09:25;11.57;;;5.22;;
64297;SDS011;50639;53.270;7.956;2024-03-02T11:11:54;8.77;;;5.05;;
64297;SDS011;50639;53.270;7.956;2024-03-02T11:14:27;13.32;;;5.95;;
64297;SDS011;50639;53.270;7.956;2024-03-02T11:16:55;7.40;;;4.45;;
64297;SDS011;50639;53.270;7.956;2024-03-02T11:19:21;8.68;;;5.30;;
64297;SDS011;50639;53.270;7.956;2024-03-02T11:21:47;8.80;;;5.05;;
64297;SDS011;50639;53.270;7.956;2024-03-02T11:27:04;9.25;;;5.82;;
64297;SDS011;50639;53.270;7.956;2024-03-02T11:32:01;9.60;;;5.28;;
64297;SDS011;50639;53.270;7.956;2024-03-02T11:34:31;14.30;;;5.30;;
64297;SDS011;50639;53.270;7.956;2024-03-02T11:37:03;11.63;;;5.10;;
64297;SDS011;50639;53.270;7.956;2024-03-02T11:39:29;8.68;;;5.63;;
64297;SDS011;50639;53.270;7.956;2024-03-02T11:41:56;8.80;;;6.00;;
64297;SDS011;50639;53.270;7.956;2024-03-02T11:44:22;8.20;;;5.37;;
64297;SDS011;50639;53.270;7.956;2024-03-02T11:49:46;8.13;;;5.22;;
64297;SDS011;50639;53.270;7.956;2024-03-02T11:52:19;8.05;;;5.20;;
64297;SDS011;50639;53.270;7.956;2024-03-02T11:54:46;7.53;;;5.03;;
64297;SDS011;50639;53.270;7.956;2024-03-02T11:57:13;8.93;;;5.10;;
64297;SDS011;50639;53.270;7.956;2024-03-02T11:59:42;9.80;;;6.50;;
64297;SDS011;50639;53.270;7.956;2024-03-02T12:02:19;9.35;;;5.05;;
64297;SDS011;50639;53.270;7.956;2024-03-02T12:04:45;8.87;;;4.33;;
64297;SDS011;50639;53.270;7.956;2024-03-02T12:07:13;9.00;;;5.22;;
64297;SDS011;50639;53.270;7.956;2024-03-02T12:09:45;7.43;;;4.35;;
64297;SDS011;50639;53.270;7.956;2024-03-02T12:12:10;7.45;;;4.05;;
64297;SDS011;50639;53.270;7.956;2024-03-02T12:14:37;7.35;;;4.22;;
64297;SDS011;50639;53.270;7.956;2024-03-02T12:17:04;7.57;;;4.38;;
64297;SDS011;50639;53.270;7.956;2024-03-02T12:19:31;10.55;;;4.70;;
64297;SDS011;50639;53.270;7.956;2024-03-02T12:21:57;9.85;;;4.53;;
64297;SDS011;50639;53.270;7.956;2024-03-02T12:24:23;7.88;;;4.57;;
64297;SDS011;50639;53.270;7.956;2024-03-02T12:26:49;5.97;;;4.10;;
64297;SDS011;50639;53.270;7.956;2024-03-02T12:29:16;7.63;;;4.07;;
64297;SDS011;50639;53.270;7.956;2024-03-02T12:31:42;8.43;;;3.92;;
64297;SDS011;50639;53.270;7.956;2024-03-02T12:34:11;7.22;;;4.25;;
64297;SDS011;50639;53.270;7.956;2024-03-02T12:36:39;7.28;;;3.78;;
64297;SDS011;50639;53.270;7.956;2024-03-02T12:39:04;7.57;;;4.32;;
64297;SDS011;50639;53.270;7.956;2024-03-02T12:41:30;7.03;;;4.10;;
64297;SDS011;50639;53.270;7.956;2024-03-02T12:43:56;7.30;;;4.50;;
64297;SDS011;50639;53.270;7.956;2024-03-02T12:46:21;7.30;;;4.68;;
64297;SDS011;50639;53.270;7.956;2024-03-02T12:48:47;11.38;;;4.95;;
64297;SDS011;50639;53.270;7.956;2024-03-02T12:51:12;8.05;;;5.30;;
64297;SDS011;50639;53.270;7.956;2024-03-02T12:53:38;7.10;;;4.55;;
64297;SDS011;50639;53.270;7.956;2024-03-02T12:56:03;8.07;;;5.20;;
64297;SDS011;50639;53.270;7.956;2024-03-02T12:58:30;9.07;;;5.30;;
64297;SDS011;50639;53.270;7.956;2024-03-02T13:01:05;7.80;;;4.97;;
64297;SDS011;50639;53.270;7.956;2024-03-02T13:06:00;8.30;;;4.80;;
64297;SDS011;50639;53.270;7.956;2024-03-02T13:08:25;10.02;;;5.32;;
64297;SDS011;50639;53.270;7.956;2024-03-02T13:10:51;10.75;;;5.50;;
64297;SDS011;50639;53.270;7.956;2024-03-02T13:13:16;8.95;;;5.15;;
64297;SDS011;50639;53.270;7.956;2024-03-02T13:15:42;8.13;;;5.50;;
64297;SDS011;50639;53.270;7.956;2024-03-02T13:18:08;7.20;;;4.80;;
64297;SDS011;50639;53.270;7.956;2024-03-02T13:20:34;17.20;;;5.82;;
64297;SDS011;50639;53.270;7.956;2024-03-02T13:23:00;8.77;;;5.65;;
64297;SDS011;50639;53.270;7.956;2024-03-02T13:25:26;9.13;;;5.28;;
64297;SDS011;50639;53.270;7.956;2024-03-02T13:27:51;8.35;;;5.53;;
64297;SDS011;50639;53.270;7.956;2024-03-02T13:30:17;9.70;;;6.97;;
64297;SDS011;50639;53.270;7.956;2024-03-02T13:32:43;16.40;;;11.90;;
64297;SDS011;50639;53.270;7.956;2024-03-02T13:35:08;8.82;;;5.80;;
64297;SDS011;50639;53.270;7.956;2024-03-02T13:40:01;9.30;;;5.20;;
64297;SDS011;50639;53.270;7.956;2024-03-02T13:42:29;9.00;;;4.95;;
64297;SDS011;50639;53.270;7.956;2024-03-02T13:44:54;7.55;;;5.00;;
64297;SDS011;50639;53.270;7.956;2024-03-02T13:47:20;7.60;;;5.18;;
64297;SDS011;50639;53.270;7.956;2024-03-02T13:49:46;7.40;;;4.80;;
64297;SDS011;50639;53.270;7.956;2024-03-02T13:54:39;7.28;;;4.60;;
64297;SDS011;50639;53.270;7.956;2024-03-02T13:57:07;8.50;;;5.10;;
64297;SDS011;50639;53.270;7.956;2024-03-02T13:59:34;7.15;;;4.20;;
64297;SDS011;50639;53.270;7.956;2024-03-02T14:02:02;6.03;;;3.90;;
64297;SDS011;50639;53.270;7.956;2024-03-02T14:06:59;7.75;;;3.80;;
64297;SDS011;50639;53.270;7.956;2024-03-02T14:09:25;8.27;;;4.75;;
64297;SDS011;50639;53.270;7.956;2024-03-02T14:11:52;8.48;;;5.35;;
64297;SDS011;50639;53.270;7.956;2024-03-02T14:14:18;7.20;;;4.38;;
64297;SDS011;50639;53.270;7.956;2024-03-02T14:16:44;7.68;;;4.05;;
64297;SDS011;50639;53.270;7.956;2024-03-02T14:19:10;8.57;;;4.22;;
64297;SDS011;50639;53.270;7.956;2024-03-02T14:21:39;7.15;;;4.25;;
64297;SDS011;50639;53.270;7.956;2024-03-02T14:24:04;7.38;;;4.18;;
64297;SDS011;50639;53.270;7.956;2024-03-02T14:26:32;6.63;;;3.72;;
64297;SDS011;50639;53.270;7.956;2024-03-02T14:28:58;6.03;;;4.28;;
64297;SDS011;50639;53.270;7.956;2024-03-02T14:31:26;7.65;;;4.25;;
64297;SDS011;50639;53.270;7.956;2024-03-02T14:33:52;7.40;;;4.20;;
64297;SDS011;50639;53.270;7.956;2024-03-02T14:36:18;8.40;;;3.72;;
64297;SDS011;50639;53.270;7.956;2024-03-02T14:38:43;6.53;;;4.50;;
64297;SDS011;50639;53.270;7.956;2024-03-02T14:41:09;8.65;;;4.35;;
64297;SDS011;50639;53.270;7.956;2024-03-02T14:43:34;11.07;;;4.30;;
64297;SDS011;50639;53.270;7.956;2024-03-02T14:46:00;7.07;;;4.18;;
64297;SDS011;50639;53.270;7.956;2024-03-02T14:48:26;6.90;;;4.47;;
64297;SDS011;50639;53.270;7.956;2024-03-02T14:50:51;7.13;;;4.00;;
64297;SDS011;50639;53.270;7.956;2024-03-02T14:53:17;6.82;;;4.20;;
64297;SDS011;50639;53.270;7.956;2024-03-02T14:55:43;7.18;;;4.10;;
64297;SDS011;50639;53.270;7.956;2024-03-02T14:58:08;6.90;;;3.80;;
64297;SDS011;50639;53.270;7.956;2024-03-02T15:00:33;8.10;;;3.95;;
64297;SDS011;50639;53.270;7.956;2024-03-02T15:02:59;6.07;;;4.20;;